메인 페이지
METAR-TAF:

METAR-TAF

공항 :

바마코, 말리

위도: 12-32N, 경도: 007-57W, 고도: 380m

현재 날씨관측

예보는 41분 전, 09:00시(UTC)에 발표되었습니다.
남서6kt
온도 27°C
습도 79%
기압 1013 hPa
시정 10km 이상
고도 3000ft 상공 구름 조금

METAR: GABS 200900Z 23006KT 9999 FEW030 27/23 Q1013 NOSIG

시각: 09:41 (09:41 UTC)

예보

예보는 4 시간 16분 전, 05:25시(UTC)에 발표되었습니다.
예보 대상 시간: 20일 06시부터 21일 12시까지 (UTC)
남서10kt
시정 10km 이상
고도 2600ft 상공 구름 조금
일시적
20일 06시부터 20일 10시까지 (UTC)
시정: 4000m
고도 2600ft 상공 구름 보통
고도 3000ft 상공 구름 보통, 적란운.
뇌우, 비
확률 40% :
일시적
20일 14시부터 20일 21시까지 (UTC)
여러 방향의 바람 20kt, 순간 최대 풍속 45kt
시정: 4000m
고도 2600ft 상공 구름 많음
고도 3000ft 상공 구름 보통, 적란운.
날린먼지, 스콜, 뇌우, 비

TAF: GABS 200525Z 2006/2112 23010KT 9999 FEW026 TEMPO 2006/2010 4000 TSRA SCT026 SCT030CB PROB40 TEMPO 2014/2021 VRB20G45KT 4000 BLDU SQ TSRA BKN026 SCT030CB

4,000개 이상의 공항 관측 자료 및 예보 (METAR 및 TAF 보고).

지도상에서 검색 가능한 기상관측소가 노란 점과 빨간 점으로 표시되어 있습니다.

기상관측소 명을 보려면 표시 위로 마우스를 이동하세요.

날씨 관측과 예보를 보려면 클릭하세요.

지도 변경 : 확대하려면 엑스 표시가 있는 녹색 버튼, 축소하려면 빼기 표시가 있는 녹색 버튼, 다음 페이지의 지도를 보려면 녹색 화살표를 클릭하세요.


METAR-TAF: